sensor_id;sensor_type;location;lat;lon;timestamp;P1;durP1;ratioP1;P2;durP2;ratioP2
9880;SDS011;4979;51.014;6.678;2022-10-16T00:01:36;10.52;;;3.67;;
9880;SDS011;4979;51.014;6.678;2022-10-16T00:04:03;8.57;;;4.53;;
9880;SDS011;4979;51.014;6.678;2022-10-16T00:06:29;8.77;;;3.45;;
9880;SDS011;4979;51.014;6.678;2022-10-16T00:08:56;8.85;;;3.70;;
9880;SDS011;4979;51.014;6.678;2022-10-16T00:11:26;7.82;;;3.45;;
9880;SDS011;4979;51.014;6.678;2022-10-16T00:13:57;5.85;;;2.83;;
9880;SDS011;4979;51.014;6.678;2022-10-16T00:16:24;5.82;;;2.88;;
9880;SDS011;4979;51.014;6.678;2022-10-16T00:18:51;4.30;;;2.67;;
9880;SDS011;4979;51.014;6.678;2022-10-16T00:21:18;6.55;;;2.90;;
9880;SDS011;4979;51.014;6.678;2022-10-16T00:23:45;7.90;;;3.03;;
9880;SDS011;4979;51.014;6.678;2022-10-16T00:26:13;4.68;;;2.05;;
9880;SDS011;4979;51.014;6.678;2022-10-16T00:28:40;4.68;;;2.13;;
9880;SDS011;4979;51.014;6.678;2022-10-16T00:31:10;4.40;;;2.08;;
9880;SDS011;4979;51.014;6.678;2022-10-16T00:33:36;5.70;;;1.90;;
9880;SDS011;4979;51.014;6.678;2022-10-16T00:36:04;8.43;;;2.33;;
9880;SDS011;4979;51.014;6.678;2022-10-16T00:38:30;5.47;;;2.45;;
9880;SDS011;4979;51.014;6.678;2022-10-16T00:40:56;8.65;;;2.75;;
9880;SDS011;4979;51.014;6.678;2022-10-16T00:43:39;6.78;;;3.15;;
9880;SDS011;4979;51.014;6.678;2022-10-16T00:48:49;10.50;;;5.25;;
9880;SDS011;4979;51.014;6.678;2022-10-16T00:51:23;6.40;;;3.90;;
9880;SDS011;4979;51.014;6.678;2022-10-16T00:53:53;7.32;;;3.60;;
9880;SDS011;4979;51.014;6.678;2022-10-16T00:56:20;5.13;;;2.35;;
9880;SDS011;4979;51.014;6.678;2022-10-16T00:58:45;8.18;;;2.65;;
9880;SDS011;4979;51.014;6.678;2022-10-16T01:01:11;9.70;;;2.95;;
9880;SDS011;4979;51.014;6.678;2022-10-16T01:03:37;2.92;;;2.00;;
9880;SDS011;4979;51.014;6.678;2022-10-16T01:06:23;13.15;;;4.05;;
9880;SDS011;4979;51.014;6.678;2022-10-16T01:12:01;3.22;;;2.75;;
9880;SDS011;4979;51.014;6.678;2022-10-16T01:14:48;3.97;;;2.80;;
9880;SDS011;4979;51.014;6.678;2022-10-16T01:23:10;2.58;;;1.98;;
9880;SDS011;4979;51.014;6.678;2022-10-16T01:31:17;24.38;;;6.95;;
9880;SDS011;4979;51.014;6.678;2022-10-16T01:33:46;6.38;;;2.40;;
9880;SDS011;4979;51.014;6.678;2022-10-16T01:36:18;3.28;;;1.85;;
9880;SDS011;4979;51.014;6.678;2022-10-16T01:38:51;7.95;;;3.92;;
9880;SDS011;4979;51.014;6.678;2022-10-16T01:41:22;3.58;;;2.00;;
9880;SDS011;4979;51.014;6.678;2022-10-16T01:44:01;5.32;;;2.15;;
9880;SDS011;4979;51.014;6.678;2022-10-16T01:46:34;3.42;;;2.10;;
9880;SDS011;4979;51.014;6.678;2022-10-16T01:49:02;4.60;;;2.40;;
9880;SDS011;4979;51.014;6.678;2022-10-16T01:51:30;4.20;;;2.40;;
9880;SDS011;4979;51.014;6.678;2022-10-16T01:53:57;2.97;;;2.05;;
9880;SDS011;4979;51.014;6.678;2022-10-16T01:56:26;3.17;;;1.90;;
9880;SDS011;4979;51.014;6.678;2022-10-16T01:59:01;1.67;;;1.58;;
9880;SDS011;4979;51.014;6.678;2022-10-16T02:01:31;3.05;;;1.60;;
9880;SDS011;4979;51.014;6.678;2022-10-16T02:04:02;14.65;;;4.70;;
9880;SDS011;4979;51.014;6.678;2022-10-16T02:06:40;3.35;;;1.80;;
9880;SDS011;4979;51.014;6.678;2022-10-16T02:09:06;4.30;;;2.33;;
9880;SDS011;4979;51.014;6.678;2022-10-16T02:11:31;4.18;;;1.85;;
9880;SDS011;4979;51.014;6.678;2022-10-16T02:13:59;2.95;;;1.60;;
9880;SDS011;4979;51.014;6.678;2022-10-16T02:16:36;3.08;;;2.28;;
9880;SDS011;4979;51.014;6.678;2022-10-16T02:19:06;3.10;;;1.83;;
9880;SDS011;4979;51.014;6.678;2022-10-16T02:21:39;2.08;;;1.80;;
9880;SDS011;4979;51.014;6.678;2022-10-16T02:24:08;2.38;;;1.70;;
9880;SDS011;4979;51.014;6.678;2022-10-16T02:26:51;2.75;;;2.10;;
9880;SDS011;4979;51.014;6.678;2022-10-16T02:29:30;3.13;;;2.00;;
9880;SDS011;4979;51.014;6.678;2022-10-16T02:32:01;3.67;;;1.73;;
9880;SDS011;4979;51.014;6.678;2022-10-16T02:34:28;3.47;;;2.28;;
9880;SDS011;4979;51.014;6.678;2022-10-16T02:36:56;2.60;;;2.40;;
9880;SDS011;4979;51.014;6.678;2022-10-16T02:39:24;3.30;;;3.00;;
9880;SDS011;4979;51.014;6.678;2022-10-16T02:41:53;3.35;;;2.72;;
9880;SDS011;4979;51.014;6.678;2022-10-16T02:44:18;2.92;;;2.67;;
9880;SDS011;4979;51.014;6.678;2022-10-16T02:46:44;3.17;;;2.50;;
9880;SDS011;4979;51.014;6.678;2022-10-16T02:49:09;4.07;;;3.22;;
9880;SDS011;4979;51.014;6.678;2022-10-16T02:51:35;4.25;;;2.55;;
9880;SDS011;4979;51.014;6.678;2022-10-16T02:54:01;2.08;;;1.70;;
9880;SDS011;4979;51.014;6.678;2022-10-16T02:56:27;5.95;;;2.58;;
9880;SDS011;4979;51.014;6.678;2022-10-16T02:58:54;4.60;;;2.20;;
9880;SDS011;4979;51.014;6.678;2022-10-16T03:01:20;2.70;;;2.50;;
9880;SDS011;4979;51.014;6.678;2022-10-16T03:03:45;4.60;;;3.13;;
9880;SDS011;4979;51.014;6.678;2022-10-16T03:06:11;2.65;;;2.13;;
9880;SDS011;4979;51.014;6.678;2022-10-16T03:08:36;4.55;;;1.90;;
9880;SDS011;4979;51.014;6.678;2022-10-16T03:11:02;4.22;;;2.75;;
9880;SDS011;4979;51.014;6.678;2022-10-16T03:13:27;6.65;;;1.83;;
9880;SDS011;4979;51.014;6.678;2022-10-16T03:15:53;1.98;;;1.63;;
9880;SDS011;4979;51.014;6.678;2022-10-16T03:18:18;2.13;;;1.60;;
9880;SDS011;4979;51.014;6.678;2022-10-16T03:20:44;2.58;;;1.33;;
9880;SDS011;4979;51.014;6.678;2022-10-16T03:23:10;1.67;;;1.50;;
9880;SDS011;4979;51.014;6.678;2022-10-16T03:25:35;2.45;;;2.20;;
9880;SDS011;4979;51.014;6.678;2022-10-16T03:28:01;3.50;;;2.15;;
9880;SDS011;4979;51.014;6.678;2022-10-16T03:30:26;2.95;;;1.80;;
9880;SDS011;4979;51.014;6.678;2022-10-16T03:32:52;3.20;;;2.28;;
9880;SDS011;4979;51.014;6.678;2022-10-16T03:35:19;3.95;;;2.70;;
9880;SDS011;4979;51.014;6.678;2022-10-16T03:37:48;7.35;;;2.95;;
9880;SDS011;4979;51.014;6.678;2022-10-16T03:40:14;4.15;;;2.35;;
9880;SDS011;4979;51.014;6.678;2022-10-16T03:42:42;3.17;;;2.40;;
9880;SDS011;4979;51.014;6.678;2022-10-16T03:45:08;5.85;;;1.67;;
9880;SDS011;4979;51.014;6.678;2022-10-16T03:47:34;3.50;;;1.63;;
9880;SDS011;4979;51.014;6.678;2022-10-16T03:50:00;3.03;;;2.30;;
9880;SDS011;4979;51.014;6.678;2022-10-16T03:52:26;4.82;;;3.20;;
9880;SDS011;4979;51.014;6.678;2022-10-16T03:54:51;9.13;;;3.63;;
9880;SDS011;4979;51.014;6.678;2022-10-16T03:57:17;3.55;;;2.15;;
9880;SDS011;4979;51.014;6.678;2022-10-16T03:59:43;4.13;;;3.08;;
9880;SDS011;4979;51.014;6.678;2022-10-16T04:02:08;5.55;;;4.25;;
9880;SDS011;4979;51.014;6.678;2022-10-16T04:04:34;4.07;;;3.42;;
9880;SDS011;4979;51.014;6.678;2022-10-16T04:07:00;4.75;;;3.45;;
9880;SDS011;4979;51.014;6.678;2022-10-16T04:09:25;7.40;;;6.63;;
9880;SDS011;4979;51.014;6.678;2022-10-16T04:11:51;8.93;;;5.15;;
9880;SDS011;4979;51.014;6.678;2022-10-16T04:14:17;3.65;;;2.30;;
9880;SDS011;4979;51.014;6.678;2022-10-16T04:16:42;3.03;;;1.63;;
9880;SDS011;4979;51.014;6.678;2022-10-16T04:19:08;4.15;;;1.58;;
9880;SDS011;4979;51.014;6.678;2022-10-16T04:21:35;1.77;;;1.35;;
9880;SDS011;4979;51.014;6.678;2022-10-16T04:24:01;5.05;;;2.20;;
9880;SDS011;4979;51.014;6.678;2022-10-16T04:26:27;2.58;;;2.25;;
9880;SDS011;4979;51.014;6.678;2022-10-16T04:28:52;3.05;;;2.20;;
9880;SDS011;4979;51.014;6.678;2022-10-16T04:31:18;2.80;;;1.40;;
9880;SDS011;4979;51.014;6.678;2022-10-16T04:33:45;6.28;;;1.67;;
9880;SDS011;4979;51.014;6.678;2022-10-16T04:36:11;3.17;;;1.67;;
9880;SDS011;4979;51.014;6.678;2022-10-16T04:38:37;2.85;;;1.98;;
9880;SDS011;4979;51.014;6.678;2022-10-16T04:41:04;2.65;;;1.50;;
9880;SDS011;4979;51.014;6.678;2022-10-16T04:43:31;2.03;;;1.73;;
9880;SDS011;4979;51.014;6.678;2022-10-16T04:45:56;8.75;;;2.55;;
9880;SDS011;4979;51.014;6.678;2022-10-16T04:48:22;4.05;;;2.03;;
9880;SDS011;4979;51.014;6.678;2022-10-16T04:50:47;2.20;;;1.40;;
9880;SDS011;4979;51.014;6.678;2022-10-16T04:53:13;2.72;;;1.45;;
9880;SDS011;4979;51.014;6.678;2022-10-16T04:55:39;2.38;;;1.75;;
9880;SDS011;4979;51.014;6.678;2022-10-16T04:58:06;1.88;;;1.42;;
9880;SDS011;4979;51.014;6.678;2022-10-16T05:00:32;6.35;;;3.50;;
9880;SDS011;4979;51.014;6.678;2022-10-16T05:02:58;7.10;;;3.03;;
9880;SDS011;4979;51.014;6.678;2022-10-16T05:05:25;5.47;;;3.22;;
9880;SDS011;4979;51.014;6.678;2022-10-16T05:07:52;3.92;;;2.42;;
9880;SDS011;4979;51.014;6.678;2022-10-16T05:10:17;9.18;;;3.22;;
9880;SDS011;4979;51.014;6.678;2022-10-16T05:12:43;3.92;;;1.73;;
9880;SDS011;4979;51.014;6.678;2022-10-16T05:15:08;6.05;;;3.35;;
9880;SDS011;4979;51.014;6.678;2022-10-16T05:17:34;30.92;;;10.05;;
9880;SDS011;4979;51.014;6.678;2022-10-16T05:20:00;1.98;;;1.63;;
9880;SDS011;4979;51.014;6.678;2022-10-16T05:22:25;6.93;;;3.58;;
9880;SDS011;4979;51.014;6.678;2022-10-16T05:24:51;5.50;;;2.17;;
9880;SDS011;4979;51.014;6.678;2022-10-16T05:27:16;3.53;;;2.38;;
9880;SDS011;4979;51.014;6.678;2022-10-16T05:29:45;6.68;;;2.63;;
9880;SDS011;4979;51.014;6.678;2022-10-16T05:32:12;21.70;;;8.05;;
9880;SDS011;4979;51.014;6.678;2022-10-16T05:34:38;4.40;;;2.47;;
9880;SDS011;4979;51.014;6.678;2022-10-16T05:37:03;4.13;;;2.25;;
9880;SDS011;4979;51.014;6.678;2022-10-16T05:39:29;6.18;;;2.70;;
9880;SDS011;4979;51.014;6.678;2022-10-16T05:41:54;5.28;;;2.35;;
9880;SDS011;4979;51.014;6.678;2022-10-16T05:44:20;27.63;;;9.18;;
9880;SDS011;4979;51.014;6.678;2022-10-16T05:46:46;4.28;;;2.67;;
9880;SDS011;4979;51.014;6.678;2022-10-16T05:49:11;7.30;;;3.47;;
9880;SDS011;4979;51.014;6.678;2022-10-16T05:51:37;3.45;;;2.05;;
9880;SDS011;4979;51.014;6.678;2022-10-16T05:54:02;9.52;;;4.43;;
9880;SDS011;4979;51.014;6.678;2022-10-16T05:56:28;1.45;;;1.30;;
9880;SDS011;4979;51.014;6.678;2022-10-16T05:58:54;3.20;;;1.88;;
9880;SDS011;4979;51.014;6.678;2022-10-16T06:01:20;2.08;;;1.60;;
9880;SDS011;4979;51.014;6.678;2022-10-16T06:03:48;1.90;;;1.60;;
9880;SDS011;4979;51.014;6.678;2022-10-16T06:06:16;5.35;;;1.80;;
9880;SDS011;4979;51.014;6.678;2022-10-16T06:08:43;19.75;;;7.80;;
9880;SDS011;4979;51.014;6.678;2022-10-16T06:11:16;9.65;;;3.85;;
9880;SDS011;4979;51.014;6.678;2022-10-16T06:13:44;4.47;;;2.72;;
9880;SDS011;4979;51.014;6.678;2022-10-16T06:16:11;5.00;;;2.88;;
9880;SDS011;4979;51.014;6.678;2022-10-16T06:18:37;8.30;;;3.35;;
9880;SDS011;4979;51.014;6.678;2022-10-16T06:21:12;2.90;;;1.90;;
9880;SDS011;4979;51.014;6.678;2022-10-16T06:23:41;1.65;;;1.42;;
9880;SDS011;4979;51.014;6.678;2022-10-16T06:26:07;2.80;;;1.95;;
9880;SDS011;4979;51.014;6.678;2022-10-16T06:28:37;4.93;;;2.70;;
9880;SDS011;4979;51.014;6.678;2022-10-16T06:31:04;5.55;;;3.38;;
9880;SDS011;4979;51.014;6.678;2022-10-16T06:33:31;4.07;;;2.58;;
9880;SDS011;4979;51.014;6.678;2022-10-16T06:36:03;4.13;;;2.70;;
9880;SDS011;4979;51.014;6.678;2022-10-16T06:38:31;3.88;;;2.03;;
9880;SDS011;4979;51.014;6.678;2022-10-16T06:40:57;4.68;;;2.80;;
9880;SDS011;4979;51.014;6.678;2022-10-16T06:43:23;4.68;;;2.60;;
9880;SDS011;4979;51.014;6.678;2022-10-16T06:45:55;2.08;;;1.90;;
9880;SDS011;4979;51.014;6.678;2022-10-16T06:48:22;4.68;;;2.20;;
9880;SDS011;4979;51.014;6.678;2022-10-16T06:53:45;7.38;;;3.13;;
9880;SDS011;4979;51.014;6.678;2022-10-16T06:56:21;5.22;;;2.58;;
9880;SDS011;4979;51.014;6.678;2022-10-16T06:58:47;8.30;;;3.40;;
9880;SDS011;4979;51.014;6.678;2022-10-16T07:01:13;12.63;;;4.20;;
9880;SDS011;4979;51.014;6.678;2022-10-16T07:03:41;7.28;;;3.05;;
9880;SDS011;4979;51.014;6.678;2022-10-16T07:06:08;10.02;;;3.30;;
9880;SDS011;4979;51.014;6.678;2022-10-16T07:08:36;12.90;;;4.35;;
9880;SDS011;4979;51.014;6.678;2022-10-16T07:11:04;7.03;;;3.22;;
9880;SDS011;4979;51.014;6.678;2022-10-16T07:13:34;4.68;;;2.10;;
9880;SDS011;4979;51.014;6.678;2022-10-16T07:16:04;3.60;;;1.50;;
9880;SDS011;4979;51.014;6.678;2022-10-16T07:18:35;2.47;;;1.50;;
9880;SDS011;4979;51.014;6.678;2022-10-16T07:23:34;2.75;;;1.23;;
9880;SDS011;4979;51.014;6.678;2022-10-16T07:26:00;2.28;;;1.30;;
9880;SDS011;4979;51.014;6.678;2022-10-16T07:28:26;2.22;;;1.23;;
9880;SDS011;4979;51.014;6.678;2022-10-16T07:30:52;2.00;;;1.30;;
9880;SDS011;4979;51.014;6.678;2022-10-16T07:33:17;2.28;;;1.23;;
9880;SDS011;4979;51.014;6.678;2022-10-16T07:35:50;3.70;;;1.50;;
9880;SDS011;4979;51.014;6.678;2022-10-16T07:38:17;3.88;;;1.33;;
9880;SDS011;4979;51.014;6.678;2022-10-16T07:40:43;1.30;;;1.10;;
9880;SDS011;4979;51.014;6.678;2022-10-16T07:43:09;1.92;;;1.40;;
9880;SDS011;4979;51.014;6.678;2022-10-16T07:45:35;3.10;;;1.38;;
9880;SDS011;4979;51.014;6.678;2022-10-16T07:48:01;2.28;;;1.30;;
9880;SDS011;4979;51.014;6.678;2022-10-16T07:50:26;1.58;;;1.25;;
9880;SDS011;4979;51.014;6.678;2022-10-16T07:52:52;2.00;;;1.40;;
9880;SDS011;4979;51.014;6.678;2022-10-16T07:55:17;3.03;;;1.20;;
9880;SDS011;4979;51.014;6.678;2022-10-16T07:57:43;3.70;;;1.10;;
9880;SDS011;4979;51.014;6.678;2022-10-16T08:00:09;2.65;;;1.33;;
9880;SDS011;4979;51.014;6.678;2022-10-16T08:02:38;3.10;;;1.25;;
9880;SDS011;4979;51.014;6.678;2022-10-16T08:05:05;3.05;;;1.73;;
9880;SDS011;4979;51.014;6.678;2022-10-16T08:07:31;4.25;;;1.42;;
9880;SDS011;4979;51.014;6.678;2022-10-16T08:09:56;3.47;;;1.48;;
9880;SDS011;4979;51.014;6.678;2022-10-16T08:12:23;5.72;;;1.50;;
9880;SDS011;4979;51.014;6.678;2022-10-16T08:14:49;4.15;;;1.25;;
9880;SDS011;4979;51.014;6.678;2022-10-16T08:17:15;4.60;;;1.30;;
9880;SDS011;4979;51.014;6.678;2022-10-16T08:19:43;3.58;;;1.55;;
9880;SDS011;4979;51.014;6.678;2022-10-16T08:22:10;4.45;;;1.13;;
9880;SDS011;4979;51.014;6.678;2022-10-16T08:24:35;2.58;;;1.10;;
9880;SDS011;4979;51.014;6.678;2022-10-16T08:27:02;3.50;;;1.50;;
9880;SDS011;4979;51.014;6.678;2022-10-16T08:29:27;3.08;;;1.05;;
9880;SDS011;4979;51.014;6.678;2022-10-16T08:31:53;1.30;;;1.20;;
9880;SDS011;4979;51.014;6.678;2022-10-16T08:34:19;3.97;;;1.30;;
9880;SDS011;4979;51.014;6.678;2022-10-16T08:36:44;2.40;;;1.33;;
9880;SDS011;4979;51.014;6.678;2022-10-16T08:39:10;1.23;;;1.02;;
9880;SDS011;4979;51.014;6.678;2022-10-16T08:44:21;4.45;;;0.98;;
9880;SDS011;4979;51.014;6.678;2022-10-16T08:47:13;1.48;;;1.00;;
9880;SDS011;4979;51.014;6.678;2022-10-16T08:49:54;2.30;;;1.48;;
9880;SDS011;4979;51.014;6.678;2022-10-16T08:52:26;4.20;;;1.17;;
9880;SDS011;4979;51.014;6.678;2022-10-16T08:55:00;4.35;;;0.98;;
9880;SDS011;4979;51.014;6.678;2022-10-16T08:57:26;2.55;;;1.10;;
9880;SDS011;4979;51.014;6.678;2022-10-16T08:59:53;3.03;;;1.05;;
9880;SDS011;4979;51.014;6.678;2022-10-16T09:02:32;1.50;;;0.82;;
9880;SDS011;4979;51.014;6.678;2022-10-16T09:05:21;2.33;;;1.25;;
9880;SDS011;4979;51.014;6.678;2022-10-16T09:08:34;2.08;;;1.13;;
9880;SDS011;4979;51.014;6.678;2022-10-16T09:11:07;0.98;;;0.85;;
9880;SDS011;4979;51.014;6.678;2022-10-16T09:16:30;3.97;;;1.17;;
9880;SDS011;4979;51.014;6.678;2022-10-16T09:21:50;2.88;;;1.33;;
9880;SDS011;4979;51.014;6.678;2022-10-16T09:24:19;2.42;;;1.02;;
9880;SDS011;4979;51.014;6.678;2022-10-16T09:26:47;0.75;;;0.75;;
9880;SDS011;4979;51.014;6.678;2022-10-16T09:29:13;1.95;;;0.77;;
9880;SDS011;4979;51.014;6.678;2022-10-16T09:31:39;2.40;;;1.48;;
9880;SDS011;4979;51.014;6.678;2022-10-16T09:34:05;1.20;;;0.90;;
9880;SDS011;4979;51.014;6.678;2022-10-16T09:36:36;3.95;;;0.90;;
9880;SDS011;4979;51.014;6.678;2022-10-16T09:39:08;2.22;;;1.42;;
9880;SDS011;4979;51.014;6.678;2022-10-16T09:41:37;3.25;;;1.20;;
9880;SDS011;4979;51.014;6.678;2022-10-16T09:44:23;4.07;;;1.05;;
9880;SDS011;4979;51.014;6.678;2022-10-16T09:47:05;6.68;;;1.30;;
9880;SDS011;4979;51.014;6.678;2022-10-16T09:49:38;2.50;;;1.05;;
9880;SDS011;4979;51.014;6.678;2022-10-16T09:52:04;4.95;;;1.10;;
9880;SDS011;4979;51.014;6.678;2022-10-16T09:54:38;1.38;;;0.95;;
9880;SDS011;4979;51.014;6.678;2022-10-16T09:57:18;2.28;;;0.93;;
9880;SDS011;4979;51.014;6.678;2022-10-16T09:59:45;6.55;;;1.20;;
9880;SDS011;4979;51.014;6.678;2022-10-16T10:02:15;4.88;;;1.13;;
9880;SDS011;4979;51.014;6.678;2022-10-16T10:04:46;2.38;;;0.93;;
9880;SDS011;4979;51.014;6.678;2022-10-16T10:07:21;1.63;;;0.93;;
9880;SDS011;4979;51.014;6.678;2022-10-16T10:09:51;2.40;;;0.90;;
9880;SDS011;4979;51.014;6.678;2022-10-16T10:12:25;2.80;;;0.90;;
9880;SDS011;4979;51.014;6.678;2022-10-16T10:14:57;5.20;;;1.15;;
9880;SDS011;4979;51.014;6.678;2022-10-16T10:17:28;1.05;;;0.63;;
9880;SDS011;4979;51.014;6.678;2022-10-16T10:19:59;2.17;;;1.38;;
9880;SDS011;4979;51.014;6.678;2022-10-16T10:22:30;1.75;;;1.20;;
9880;SDS011;4979;51.014;6.678;2022-10-16T10:25:00;3.75;;;1.17;;
9880;SDS011;4979;51.014;6.678;2022-10-16T10:32:58;5.82;;;1.15;;
9880;SDS011;4979;51.014;6.678;2022-10-16T10:35:32;1.15;;;1.00;;
9880;SDS011;4979;51.014;6.678;2022-10-16T10:38:20;1.80;;;1.08;;
9880;SDS011;4979;51.014;6.678;2022-10-16T10:41:34;2.25;;;1.00;;
9880;SDS011;4979;51.014;6.678;2022-10-16T10:47:12;2.78;;;0.95;;
9880;SDS011;4979;51.014;6.678;2022-10-16T10:49:52;1.25;;;0.80;;
9880;SDS011;4979;51.014;6.678;2022-10-16T10:57:46;3.78;;;1.05;;
9880;SDS011;4979;51.014;6.678;2022-10-16T11:00:39;2.08;;;1.10;;
9880;SDS011;4979;51.014;6.678;2022-10-16T11:05:56;2.75;;;1.00;;
9880;SDS011;4979;51.014;6.678;2022-10-16T11:08:32;1.75;;;1.20;;
9880;SDS011;4979;51.014;6.678;2022-10-16T11:11:23;2.58;;;1.20;;
9880;SDS011;4979;51.014;6.678;2022-10-16T11:14:15;2.90;;;1.63;;
9880;SDS011;4979;51.014;6.678;2022-10-16T11:16:58;2.13;;;1.15;;
9880;SDS011;4979;51.014;6.678;2022-10-16T11:19:46;2.05;;;1.02;;
9880;SDS011;4979;51.014;6.678;2022-10-16T11:22:38;3.65;;;1.05;;
9880;SDS011;4979;51.014;6.678;2022-10-16T11:25:20;1.58;;;1.10;;
9880;SDS011;4979;51.014;6.678;2022-10-16T11:28:14;2.55;;;0.85;;
9880;SDS011;4979;51.014;6.678;2022-10-16T11:31:19;2.53;;;1.20;;
9880;SDS011;4979;51.014;6.678;2022-10-16T11:36:17;2.22;;;1.17;;
9880;SDS011;4979;51.014;6.678;2022-10-16T11:41:31;1.60;;;1.10;;
9880;SDS011;4979;51.014;6.678;2022-10-16T11:50:00;3.72;;;1.25;;
9880;SDS011;4979;51.014;6.678;2022-10-16T11:52:48;2.72;;;0.88;;
9880;SDS011;4979;51.014;6.678;2022-10-16T11:55:34;2.03;;;0.90;;
9880;SDS011;4979;51.014;6.678;2022-10-16T11:58:12;2.85;;;1.00;;
9880;SDS011;4979;51.014;6.678;2022-10-16T12:00:52;1.52;;;1.25;;
9880;SDS011;4979;51.014;6.678;2022-10-16T12:06:23;2.90;;;1.15;;
9880;SDS011;4979;51.014;6.678;2022-10-16T12:08:59;4.47;;;1.00;;
9880;SDS011;4979;51.014;6.678;2022-10-16T12:13:51;1.15;;;0.90;;
9880;SDS011;4979;51.014;6.678;2022-10-16T12:16:28;1.10;;;0.90;;
9880;SDS011;4979;51.014;6.678;2022-10-16T12:19:09;2.13;;;1.30;;
9880;SDS011;4979;51.014;6.678;2022-10-16T12:21:37;0.80;;;0.80;;
9880;SDS011;4979;51.014;6.678;2022-10-16T12:24:03;2.40;;;1.00;;
9880;SDS011;4979;51.014;6.678;2022-10-16T12:26:31;2.85;;;1.20;;
9880;SDS011;4979;51.014;6.678;2022-10-16T12:32:04;1.40;;;1.08;;
9880;SDS011;4979;51.014;6.678;2022-10-16T12:34:35;2.78;;;1.20;;
9880;SDS011;4979;51.014;6.678;2022-10-16T12:37:09;4.18;;;1.02;;
9880;SDS011;4979;51.014;6.678;2022-10-16T12:39:38;2.90;;;1.10;;
9880;SDS011;4979;51.014;6.678;2022-10-16T12:42:05;1.33;;;0.85;;
9880;SDS011;4979;51.014;6.678;2022-10-16T12:44:44;3.00;;;1.27;;
9880;SDS011;4979;51.014;6.678;2022-10-16T12:47:19;2.13;;;1.00;;
9880;SDS011;4979;51.014;6.678;2022-10-16T12:49:57;2.35;;;1.08;;
9880;SDS011;4979;51.014;6.678;2022-10-16T12:52:27;1.60;;;0.90;;
9880;SDS011;4979;51.014;6.678;2022-10-16T12:54:59;2.55;;;1.05;;
9880;SDS011;4979;51.014;6.678;2022-10-16T13:16:27;2.38;;;0.93;;
9880;SDS011;4979;51.014;6.678;2022-10-16T13:19:22;1.15;;;1.00;;
9880;SDS011;4979;51.014;6.678;2022-10-16T13:22:22;2.83;;;1.15;;
9880;SDS011;4979;51.014;6.678;2022-10-16T13:27:57;2.97;;;0.95;;
9880;SDS011;4979;51.014;6.678;2022-10-16T13:30:30;2.88;;;1.00;;
9880;SDS011;4979;51.014;6.678;2022-10-16T13:33:41;1.50;;;1.02;;
9880;SDS011;4979;51.014;6.678;2022-10-16T13:36:05;1.65;;;0.95;;
9880;SDS011;4979;51.014;6.678;2022-10-16T13:39:27;1.77;;;0.88;;
9880;SDS011;4979;51.014;6.678;2022-10-16T13:44:44;1.50;;;0.90;;
9880;SDS011;4979;51.014;6.678;2022-10-16T13:47:24;1.63;;;1.23;;
9880;SDS011;4979;51.014;6.678;2022-10-16T13:50:01;2.05;;;0.95;;
9880;SDS011;4979;51.014;6.678;2022-10-16T13:52:31;3.85;;;1.17;;
9880;SDS011;4979;51.014;6.678;2022-10-16T13:54:57;3.30;;;1.10;;
9880;SDS011;4979;51.014;6.678;2022-10-16T13:57:23;3.28;;;1.10;;
9880;SDS011;4979;51.014;6.678;2022-10-16T13:59:50;1.33;;;0.90;;
9880;SDS011;4979;51.014;6.678;2022-10-16T14:05:00;1.58;;;0.85;;
9880;SDS011;4979;51.014;6.678;2022-10-16T14:07:31;3.63;;;1.00;;
9880;SDS011;4979;51.014;6.678;2022-10-16T14:10:04;1.42;;;0.82;;
9880;SDS011;4979;51.014;6.678;2022-10-16T14:12:32;2.78;;;0.93;;
9880;SDS011;4979;51.014;6.678;2022-10-16T14:14:59;3.28;;;1.05;;
9880;SDS011;4979;51.014;6.678;2022-10-16T14:17:26;14.30;;;5.90;;
9880;SDS011;4979;51.014;6.678;2022-10-16T14:20:04;10.02;;;3.92;;
9880;SDS011;4979;51.014;6.678;2022-10-16T14:22:35;9.85;;;4.35;;
9880;SDS011;4979;51.014;6.678;2022-10-16T14:25:21;6.18;;;2.33;;
9880;SDS011;4979;51.014;6.678;2022-10-16T14:30:48;6.32;;;3.58;;
9880;SDS011;4979;51.014;6.678;2022-10-16T14:33:21;6.93;;;2.88;;
9880;SDS011;4979;51.014;6.678;2022-10-16T14:39:02;8.98;;;3.55;;
9880;SDS011;4979;51.014;6.678;2022-10-16T14:41:31;10.40;;;2.53;;
9880;SDS011;4979;51.014;6.678;2022-10-16T14:44:06;2.13;;;1.10;;
9880;SDS011;4979;51.014;6.678;2022-10-16T14:46:36;1.33;;;0.80;;
9880;SDS011;4979;51.014;6.678;2022-10-16T14:49:04;3.63;;;1.15;;
9880;SDS011;4979;51.014;6.678;2022-10-16T14:51:44;9.20;;;3.83;;
9880;SDS011;4979;51.014;6.678;2022-10-16T14:54:11;2.00;;;1.42;;
9880;SDS011;4979;51.014;6.678;2022-10-16T14:56:48;1.95;;;0.90;;
9880;SDS011;4979;51.014;6.678;2022-10-16T14:59:24;2.10;;;0.82;;
9880;SDS011;4979;51.014;6.678;2022-10-16T15:01:53;3.00;;;1.48;;
9880;SDS011;4979;51.014;6.678;2022-10-16T15:04:19;2.08;;;1.08;;
9880;SDS011;4979;51.014;6.678;2022-10-16T15:06:44;1.58;;;0.90;;
9880;SDS011;4979;51.014;6.678;2022-10-16T15:09:10;2.05;;;0.80;;
9880;SDS011;4979;51.014;6.678;2022-10-16T15:11:36;1.75;;;1.25;;
9880;SDS011;4979;51.014;6.678;2022-10-16T15:14:02;2.50;;;1.20;;
9880;SDS011;4979;51.014;6.678;2022-10-16T15:16:28;1.98;;;1.10;;
9880;SDS011;4979;51.014;6.678;2022-10-16T15:18:54;1.98;;;0.95;;
9880;SDS011;4979;51.014;6.678;2022-10-16T15:21:27;5.38;;;2.60;;
9880;SDS011;4979;51.014;6.678;2022-10-16T15:23:55;2.15;;;1.45;;
9880;SDS011;4979;51.014;6.678;2022-10-16T15:26:22;3.30;;;1.90;;
9880;SDS011;4979;51.014;6.678;2022-10-16T15:28:51;8.55;;;4.15;;
9880;SDS011;4979;51.014;6.678;2022-10-16T15:31:17;3.55;;;1.95;;
9880;SDS011;4979;51.014;6.678;2022-10-16T15:33:43;24.10;;;12.68;;
9880;SDS011;4979;51.014;6.678;2022-10-16T15:36:09;46.22;;;25.90;;
9880;SDS011;4979;51.014;6.678;2022-10-16T15:38:34;37.70;;;19.67;;
9880;SDS011;4979;51.014;6.678;2022-10-16T15:41:00;30.13;;;14.30;;
9880;SDS011;4979;51.014;6.678;2022-10-16T15:43:26;11.93;;;4.78;;
9880;SDS011;4979;51.014;6.678;2022-10-16T15:48:32;12.15;;;5.15;;
9880;SDS011;4979;51.014;6.678;2022-10-16T15:50:58;27.45;;;13.90;;
9880;SDS011;4979;51.014;6.678;2022-10-16T15:53:24;10.82;;;5.50;;
9880;SDS011;4979;51.014;6.678;2022-10-16T15:55:50;3.78;;;2.40;;
9880;SDS011;4979;51.014;6.678;2022-10-16T15:58:15;3.30;;;1.50;;
9880;SDS011;4979;51.014;6.678;2022-10-16T16:00:41;3.75;;;1.45;;
9880;SDS011;4979;51.014;6.678;2022-10-16T16:03:07;3.85;;;1.38;;
9880;SDS011;4979;51.014;6.678;2022-10-16T16:05:32;3.90;;;1.90;;
9880;SDS011;4979;51.014;6.678;2022-10-16T16:07:58;4.32;;;2.08;;
9880;SDS011;4979;51.014;6.678;2022-10-16T16:10:24;3.80;;;1.65;;
9880;SDS011;4979;51.014;6.678;2022-10-16T16:12:50;2.05;;;1.20;;
9880;SDS011;4979;51.014;6.678;2022-10-16T16:15:17;3.72;;;1.10;;
9880;SDS011;4979;51.014;6.678;2022-10-16T16:17:44;26.98;;;11.60;;
9880;SDS011;4979;51.014;6.678;2022-10-16T16:20:10;16.88;;;6.95;;
9880;SDS011;4979;51.014;6.678;2022-10-16T16:22:36;25.50;;;13.48;;
9880;SDS011;4979;51.014;6.678;2022-10-16T16:25:02;52.13;;;26.58;;
9880;SDS011;4979;51.014;6.678;2022-10-16T16:27:28;61.03;;;26.08;;
9880;SDS011;4979;51.014;6.678;2022-10-16T16:29:58;23.77;;;9.27;;
9880;SDS011;4979;51.014;6.678;2022-10-16T16:32:24;79.80;;;40.05;;
9880;SDS011;4979;51.014;6.678;2022-10-16T16:34:50;33.10;;;15.38;;
9880;SDS011;4979;51.014;6.678;2022-10-16T16:37:15;38.30;;;20.10;;
9880;SDS011;4979;51.014;6.678;2022-10-16T16:39:41;50.15;;;25.52;;
9880;SDS011;4979;51.014;6.678;2022-10-16T16:42:07;10.90;;;6.88;;
9880;SDS011;4979;51.014;6.678;2022-10-16T16:44:34;25.75;;;13.85;;
9880;SDS011;4979;51.014;6.678;2022-10-16T16:47:04;15.43;;;9.05;;
9880;SDS011;4979;51.014;6.678;2022-10-16T16:49:30;37.40;;;16.83;;
9880;SDS011;4979;51.014;6.678;2022-10-16T16:51:55;12.07;;;6.40;;
9880;SDS011;4979;51.014;6.678;2022-10-16T16:54:21;8.38;;;5.35;;
9880;SDS011;4979;51.014;6.678;2022-10-16T16:56:47;6.85;;;3.90;;
9880;SDS011;4979;51.014;6.678;2022-10-16T16:59:13;11.52;;;7.35;;
9880;SDS011;4979;51.014;6.678;2022-10-16T17:01:41;22.52;;;11.48;;
9880;SDS011;4979;51.014;6.678;2022-10-16T17:04:07;25.50;;;14.52;;
9880;SDS011;4979;51.014;6.678;2022-10-16T17:06:33;8.73;;;5.47;;
9880;SDS011;4979;51.014;6.678;2022-10-16T17:09:00;22.50;;;11.50;;
9880;SDS011;4979;51.014;6.678;2022-10-16T17:11:27;2.20;;;1.75;;
9880;SDS011;4979;51.014;6.678;2022-10-16T17:13:54;16.55;;;8.77;;